Main page
METAR-TAF:

METAR-TAF

Airports :

Donegal Airport

Donegal, Ireland

latitude: 55-02-39N, longitude: 8-20-28W, elevation: 9 m

Current weather observation

The report was made 11 hours and 36 minutes ago, at 18:30 UTC
Wind 17 kt from the West/Northwest
Temperature 11°C
Humidity 94%
Pressure 1033 hPa
Visibility: 7000 m
Overcast at a height of 800 ft
light rain

METAR: EIDL 231830Z 29017KT 7000 -RA OVC008 11/10 Q1033

Time: 07:06 (06:06 UTC)

Forecast

The report was made 1 hour and 6 minutes ago, at 05:00 UTC
Forecast valid from 24 at 06 UTC to 24 at 15 UTC
Wind 15 kt from the West
Visibility 10 km or more
Overcast at a height of 1700 ft
Temporary
from 24 at 06 UTC to 24 at 08 UTC
Broken clouds at a height of 1000 ft
Becoming
from 24 at 08 UTC to 24 at 10 UTC
Visibility 10 km or more
Broken clouds at a height of 2000 ft

TAF: EIDL 240500Z 2406/2415 28015KT 9999 OVC017 TEMPO 2406/2408 BKN010 BECMG 2408/2410 9999 BKN020

Weather observations and forecasts of more than 4000 airports (METAR and TAF reports).

The available stations are represented by yellow and red dots on the map.

Hover mouse over dot to see the name of the station.

Then click to see weather observations and forecasts.

To change the map : click on the green buttons with a black cross to zoom in, on the green button with a dash to zoom out, or on the green arrows for adjacent maps.


METAR-TAF: